createdAt,value
2018-06-22T00:01:48.075Z,101204.42
2018-06-22T00:04:16.713Z,101205.98
2018-06-22T00:06:45.403Z,101207.52
2018-06-22T00:09:15.757Z,101207.67
2018-06-22T00:11:45.610Z,101200.47
2018-06-22T00:14:15.384Z,101210.84
2018-06-22T00:16:44.571Z,101204.66
2018-06-22T00:19:13.546Z,101205.54
2018-06-22T00:21:42.129Z,101202.86
2018-06-22T00:24:11.054Z,101209.70
2018-06-22T00:26:39.671Z,101208.38
2018-06-22T00:29:08.423Z,101205.03
2018-06-22T00:31:37.016Z,101207.21
2018-06-22T00:34:06.636Z,101206.91
2018-06-22T00:36:36.251Z,101207.42
2018-06-22T00:39:06.626Z,101212.72
2018-06-22T00:41:35.557Z,101212.73
2018-06-22T00:44:04.211Z,101206.13
2018-06-22T00:46:33.029Z,101200.39
2018-06-22T00:49:01.776Z,101202.31
2018-06-22T00:51:30.434Z,101194.80
2018-06-22T00:54:12.182Z,101196.18
2018-06-22T00:56:40.776Z,101190.75
2018-06-22T00:59:09.890Z,101192.80
2018-06-22T01:01:39.157Z,101194.17
2018-06-22T01:04:08.552Z,101198.02
2018-06-22T01:06:37.513Z,101190.50
2018-06-22T01:09:09.870Z,101188.49
2018-06-22T01:11:38.556Z,101180.81
2018-06-22T01:14:08.011Z,101181.02
2018-06-22T01:16:37.020Z,101183.48
2018-06-22T01:19:07.074Z,101185.55
2018-06-22T01:21:35.713Z,101182.51
2018-06-22T01:24:04.614Z,101189.87
2018-06-22T01:26:33.756Z,101177.47
2018-06-22T01:29:07.636Z,101178.14
2018-06-22T01:31:36.368Z,101176.34
2018-06-22T01:34:05.121Z,101172.53
2018-06-22T01:36:33.820Z,101177.00
2018-06-22T01:39:02.519Z,101170.36
2018-06-22T01:41:31.138Z,101172.89
2018-06-22T01:43:59.780Z,101175.43
2018-06-22T01:46:28.370Z,101167.55
2018-06-22T01:48:57.330Z,101173.95
2018-06-22T01:51:26.171Z,101172.81
2018-06-22T01:53:55.392Z,101170.31
2018-06-22T01:56:23.948Z,101169.64
2018-06-22T01:58:53.415Z,101165.14
2018-06-22T02:01:22.348Z,101165.97
2018-06-22T02:03:51.260Z,101166.80
2018-06-22T02:06:19.872Z,101171.98
2018-06-22T02:08:48.515Z,101168.61
2018-06-22T02:11:17.390Z,101171.00
2018-06-22T02:13:46.018Z,101172.20
2018-06-22T02:16:15.446Z,101171.50
2018-06-22T02:18:44.089Z,101172.20
2018-06-22T02:21:12.689Z,101170.69
2018-06-22T02:23:41.906Z,101169.69
2018-06-22T02:26:10.794Z,101165.33
2018-06-22T02:28:39.536Z,101161.63
2018-06-22T02:31:08.452Z,101168.31
2018-06-22T02:33:37.148Z,101173.16
2018-06-22T02:36:05.769Z,101166.27
2018-06-22T02:38:34.430Z,101170.59
2018-06-22T02:41:07.171Z,101171.26
2018-06-22T02:43:36.540Z,101170.78
2018-06-22T02:46:05.284Z,101176.97
2018-06-22T02:48:34.224Z,101175.91
2018-06-22T02:51:02.873Z,101166.14
2018-06-22T02:53:31.511Z,101176.03
2018-06-22T02:56:01.505Z,101166.58
2018-06-22T02:58:31.680Z,101185.78
2018-06-22T03:01:00.803Z,101169.75
2018-06-22T03:03:29.428Z,101169.55
2018-06-22T03:05:58.101Z,101174.40
2018-06-22T03:08:26.980Z,101160.79
2018-06-22T03:10:56.178Z,101153.48
2018-06-22T03:13:24.822Z,101164.71
2018-06-22T03:15:53.452Z,101157.95
2018-06-22T03:18:22.343Z,101162.97
2018-06-22T03:20:50.963Z,101162.30
2018-06-22T03:23:19.978Z,101156.28
2018-06-22T03:25:48.872Z,101155.95
2018-06-22T03:28:17.802Z,101157.81
2018-06-22T03:30:46.752Z,101158.90
2018-06-22T03:33:15.652Z,101159.63
2018-06-22T03:35:44.573Z,101155.59
2018-06-22T03:38:13.248Z,101155.05
2018-06-22T03:40:41.894Z,101149.81
2018-06-22T03:43:10.528Z,101153.52
2018-06-22T03:45:39.462Z,101154.39
2018-06-22T03:48:08.082Z,101153.25
2018-06-22T03:50:36.668Z,101149.88
2018-06-22T03:53:05.279Z,101157.33
2018-06-22T03:55:33.964Z,101149.61
2018-06-22T03:58:02.683Z,101156.25
2018-06-22T04:00:31.325Z,101153.44
2018-06-22T04:02:59.967Z,101157.45
2018-06-22T04:05:28.679Z,101150.81
2018-06-22T04:07:57.305Z,101148.01
2018-06-22T04:10:25.943Z,101153.81
2018-06-22T04:12:54.585Z,101148.77
2018-06-22T04:15:23.484Z,101153.12
2018-06-22T04:17:53.967Z,101153.48
2018-06-22T04:20:23.743Z,101151.44
2018-06-22T04:22:53.244Z,101162.80
2018-06-22T04:25:23.735Z,101150.44
2018-06-22T04:27:53.000Z,101150.94
2018-06-22T04:30:21.633Z,101147.77
2018-06-22T04:32:50.980Z,101148.44
2018-06-22T04:35:19.644Z,101151.10
2018-06-22T04:37:48.542Z,101154.58
2018-06-22T04:40:17.423Z,101144.77
2018-06-22T04:42:46.050Z,101142.25
2018-06-22T04:45:15.577Z,101144.38
2018-06-22T04:47:44.632Z,101148.43
2018-06-22T04:50:13.533Z,101146.41
2018-06-22T04:52:42.197Z,101142.33
2018-06-22T04:55:11.307Z,101144.28
2018-06-22T04:57:40.581Z,101143.70
2018-06-22T05:00:09.911Z,101154.02
2018-06-22T05:02:38.504Z,101150.51
2018-06-22T05:05:07.125Z,101144.66
2018-06-22T05:07:35.763Z,101148.73
2018-06-22T05:10:04.953Z,101144.12
2018-06-22T05:12:33.951Z,101145.45
2018-06-22T05:15:02.981Z,101146.47
2018-06-22T05:17:33.408Z,101147.41
2018-06-22T05:20:02.107Z,101144.67
2018-06-22T05:22:30.788Z,101143.62
2018-06-22T05:24:59.555Z,101145.34
2018-06-22T05:27:28.234Z,101146.51
2018-06-22T05:29:56.852Z,101153.16
2018-06-22T05:32:25.506Z,101146.63
2018-06-22T05:34:54.504Z,101149.63
2018-06-22T05:37:24.679Z,101143.11
2018-06-22T05:39:53.345Z,101137.59
2018-06-22T05:42:21.983Z,101135.21
2018-06-22T05:44:50.943Z,101143.51
2018-06-22T05:47:19.656Z,101141.77
2018-06-22T05:49:48.800Z,101140.27
2018-06-22T05:52:18.269Z,101146.89
2018-06-22T05:54:47.462Z,101143.09
2018-06-22T05:57:17.326Z,101137.66
2018-06-22T05:59:46.771Z,101146.30
2018-06-22T06:02:15.471Z,101154.37
2018-06-22T06:04:44.451Z,101162.86
2018-06-22T06:07:13.640Z,101158.73
2018-06-22T06:09:42.252Z,101144.33
2018-06-22T06:12:11.133Z,101147.48
2018-06-22T06:14:41.425Z,101147.03
2018-06-22T06:17:10.817Z,101150.27
2018-06-22T06:19:39.684Z,101138.72
2018-06-22T06:22:08.749Z,101139.27
2018-06-22T06:24:37.526Z,101138.37
2018-06-22T06:27:06.603Z,101141.25
2018-06-22T06:29:35.237Z,101150.75
2018-06-22T06:32:03.897Z,101142.84
2018-06-22T06:34:32.517Z,101136.56
2018-06-22T06:37:02.314Z,101141.79
2018-06-22T06:39:31.151Z,101142.17
2018-06-22T06:41:59.765Z,101140.03
2018-06-22T06:44:28.929Z,101137.85
2018-06-22T06:46:57.533Z,101140.00
2018-06-22T06:49:26.404Z,101154.92
2018-06-22T06:51:55.006Z,101146.89
2018-06-22T06:54:23.679Z,101143.39
2018-06-22T06:56:52.627Z,101145.63
2018-06-22T06:59:21.253Z,101149.09
2018-06-22T07:01:50.188Z,101145.81
2018-06-22T07:04:18.859Z,101156.79
2018-06-22T07:06:47.581Z,101156.18
2018-06-22T07:09:16.394Z,101139.34
2018-06-22T07:11:45.137Z,101152.78
2018-06-22T07:14:13.768Z,101153.44
2018-06-22T07:16:42.429Z,101151.55
2018-06-22T07:19:11.193Z,101170.77
2018-06-22T07:21:40.317Z,101164.92
2018-06-22T07:24:09.190Z,101169.73
2018-06-22T07:26:38.145Z,101173.94
2018-06-22T07:29:06.832Z,101158.47
2018-06-22T07:31:35.528Z,101169.22
2018-06-22T07:34:04.138Z,101167.55
2018-06-22T07:36:32.795Z,101168.27
2018-06-22T07:39:01.946Z,101172.34
2018-06-22T07:41:30.706Z,101170.86
2018-06-22T07:43:59.509Z,101172.94
2018-06-22T07:46:28.800Z,101167.92
2018-06-22T07:49:00.466Z,101173.88
2018-06-22T07:51:29.482Z,101164.55
2018-06-22T07:53:58.470Z,101165.40
2018-06-22T07:56:27.728Z,101182.59
2018-06-22T07:58:56.960Z,101175.14
2018-06-22T08:01:25.945Z,101171.09
2018-06-22T08:03:54.857Z,101179.20
2018-06-22T08:06:24.201Z,101173.55
2018-06-22T08:08:53.050Z,101180.36
2018-06-22T08:11:21.911Z,101182.66
2018-06-22T08:13:50.537Z,101176.59
2018-06-22T08:16:19.370Z,101180.48
2018-06-22T08:18:48.369Z,101188.89
2018-06-22T08:21:17.082Z,101200.22
2018-06-22T08:23:45.796Z,101202.51
2018-06-22T08:26:14.451Z,101195.27
2018-06-22T08:28:43.196Z,101199.25
2018-06-22T08:31:12.401Z,101197.88
2018-06-22T08:33:41.000Z,101202.15
2018-06-22T08:36:09.668Z,101209.83
2018-06-22T08:38:38.271Z,101209.17
2018-06-22T08:41:07.706Z,101213.22
2018-06-22T08:43:36.614Z,101216.91
2018-06-22T08:46:05.392Z,101217.17
2018-06-22T08:48:34.206Z,101213.18
2018-06-22T08:51:02.842Z,101217.72
2018-06-22T08:53:31.463Z,101221.29
2018-06-22T08:56:00.130Z,101219.44
2018-06-22T08:58:28.858Z,101227.33
2018-06-22T09:00:57.881Z,101222.34
2018-06-22T09:03:26.549Z,101231.91
2018-06-22T09:05:55.420Z,101226.31
2018-06-22T09:08:24.227Z,101220.05
2018-06-22T09:10:52.944Z,101220.95
2018-06-22T09:13:21.706Z,101214.06
2018-06-22T09:15:50.676Z,101212.67
2018-06-22T09:18:20.006Z,101208.45
2018-06-22T09:20:48.669Z,101215.17
2018-06-22T09:23:17.420Z,101218.59
2018-06-22T09:25:46.153Z,101233.09
2018-06-22T09:28:14.766Z,101253.66
2018-06-22T09:30:43.421Z,101254.59
2018-06-22T09:33:12.157Z,101256.73
2018-06-22T09:35:40.829Z,101257.56
2018-06-22T09:38:09.451Z,101250.96
2018-06-22T09:40:38.232Z,101250.48
2018-06-22T09:43:06.868Z,101244.61
2018-06-22T09:45:35.925Z,101247.45
2018-06-22T09:48:05.008Z,101250.79
2018-06-22T09:50:34.341Z,101257.18
2018-06-22T09:53:03.012Z,101251.40
2018-06-22T09:55:31.664Z,101262.49
2018-06-22T09:58:00.271Z,101259.03
2018-06-22T10:00:29.182Z,101265.60
2018-06-22T10:02:57.957Z,101273.81
2018-06-22T10:05:28.974Z,101272.33
2018-06-22T10:07:57.996Z,101271.52
2018-06-22T10:10:26.631Z,101276.95
2018-06-22T10:12:55.345Z,101266.34
2018-06-22T10:15:24.236Z,101268.06
2018-06-22T10:17:52.898Z,101274.88
2018-06-22T10:20:22.173Z,101275.70
2018-06-22T10:22:51.145Z,101269.86
2018-06-22T10:25:19.742Z,101270.77
2018-06-22T10:27:48.390Z,101271.44
2018-06-22T10:30:17.037Z,101277.82
2018-06-22T10:32:46.023Z,101268.74
2018-06-22T10:35:14.667Z,101273.73
2018-06-22T10:37:43.272Z,101260.83
2018-06-22T10:40:11.953Z,101252.52
2018-06-22T10:42:40.710Z,101251.44
2018-06-22T10:45:09.733Z,101255.64
2018-06-22T10:47:38.407Z,101248.77
2018-06-22T10:50:07.855Z,101244.92
2018-06-22T10:52:36.785Z,101236.96
2018-06-22T10:55:05.468Z,101224.66
2018-06-22T10:57:34.579Z,101228.33
2018-06-22T11:00:03.548Z,101226.40
2018-06-22T11:02:32.390Z,101229.07
2018-06-22T11:05:01.070Z,101224.86
2018-06-22T11:07:30.330Z,101221.33
2018-06-22T11:09:59.574Z,101229.41
2018-06-22T11:12:29.171Z,101232.56
2018-06-22T11:14:58.230Z,101263.40
2018-06-22T11:17:27.582Z,101279.02
2018-06-22T11:19:56.941Z,101300.29
2018-06-22T11:22:25.678Z,101282.64
2018-06-22T11:24:55.112Z,101275.08
2018-06-22T11:27:24.489Z,101270.62
2018-06-22T11:29:53.272Z,101276.09
2018-06-22T11:32:22.262Z,101271.42
2018-06-22T11:34:51.278Z,101278.56
2018-06-22T11:37:20.079Z,101284.03
2018-06-22T11:39:48.802Z,101292.03
2018-06-22T11:42:17.460Z,101286.30
2018-06-22T11:44:47.049Z,101294.69
2018-06-22T11:47:16.773Z,101284.50
2018-06-22T11:49:46.383Z,101275.75
2018-06-22T11:52:15.430Z,101276.27
2018-06-22T11:54:44.190Z,101272.33
2018-06-22T11:57:12.824Z,101267.53
2018-06-22T11:59:41.851Z,101277.45
2018-06-22T12:02:10.518Z,101269.34
2018-06-22T12:04:39.338Z,101272.40
2018-06-22T12:07:08.397Z,101275.23
2018-06-22T12:09:37.321Z,101274.41
2018-06-22T12:12:06.004Z,101277.35
2018-06-22T12:14:35.057Z,101280.00
2018-06-22T12:17:07.803Z,101280.74
2018-06-22T12:19:39.949Z,101275.00
2018-06-22T12:22:09.259Z,101269.90
2018-06-22T12:24:38.088Z,101265.91
2018-06-22T12:27:06.756Z,101275.09
2018-06-22T12:29:35.824Z,101267.89
2018-06-22T12:32:04.704Z,101261.98
2018-06-22T12:34:34.591Z,101265.29
2018-06-22T12:37:03.513Z,101263.73
2018-06-22T12:39:32.322Z,101259.86
2018-06-22T12:42:01.014Z,101265.80
2018-06-22T12:44:29.664Z,101265.47
2018-06-22T12:46:58.411Z,101266.88
2018-06-22T12:49:27.080Z,101266.39
2018-06-22T12:54:23.535Z,101271.43
2018-06-22T12:56:52.412Z,101262.46
2018-06-22T12:59:21.113Z,101250.37
2018-06-22T13:01:49.879Z,101245.29
2018-06-22T13:04:18.639Z,101238.73
2018-06-22T13:06:47.933Z,101243.34
2018-06-22T13:09:16.635Z,101229.09
2018-06-22T13:11:45.276Z,101239.52
2018-06-22T13:14:13.942Z,101237.59
2018-06-22T13:16:42.641Z,101232.06
2018-06-22T13:19:11.273Z,101228.70
2018-06-22T13:21:52.080Z,101232.86
2018-06-22T13:24:22.248Z,101245.41
2018-06-22T13:26:51.399Z,101241.71
2018-06-22T13:29:20.295Z,101239.09
2018-06-22T13:31:49.587Z,101247.34
2018-06-22T13:34:18.561Z,101245.00
2018-06-22T13:36:48.114Z,101253.70
2018-06-22T13:39:18.222Z,101258.02
2018-06-22T13:41:47.205Z,101266.92
2018-06-22T13:44:15.822Z,101259.03
2018-06-22T13:46:45.016Z,101249.41
2018-06-22T13:49:14.352Z,101247.98
2018-06-22T13:51:43.382Z,101250.37
2018-06-22T13:54:12.127Z,101251.63
2018-06-22T13:56:40.868Z,101246.70
2018-06-22T13:59:09.821Z,101249.63
2018-06-22T14:01:38.945Z,101249.31
2018-06-22T14:04:12.859Z,101244.50
2018-06-22T14:06:46.833Z,101252.64
2018-06-22T14:09:16.421Z,101252.89
2018-06-22T14:11:45.122Z,101256.56
2018-06-22T14:14:14.122Z,101264.70
2018-06-22T14:16:43.272Z,101259.56
2018-06-22T14:19:11.943Z,101271.28
2018-06-22T14:21:41.249Z,101272.19
2018-06-22T14:24:10.208Z,101281.44
2018-06-22T14:26:39.243Z,101287.55
2018-06-22T14:29:07.938Z,101293.15
2018-06-22T14:31:36.868Z,101291.13
2018-06-22T14:34:05.663Z,101290.05
2018-06-22T14:36:34.337Z,101295.72
2018-06-22T14:39:03.049Z,101299.02
2018-06-22T14:41:31.742Z,101299.34
2018-06-22T14:44:00.463Z,101298.66
2018-06-22T14:46:29.155Z,101292.79
2018-06-22T14:48:58.879Z,101298.71
2018-06-22T14:51:28.322Z,101295.09
2018-06-22T14:54:02.197Z,101297.75
2018-06-22T14:56:36.898Z,101290.23
2018-06-22T14:59:12.208Z,101291.95
2018-06-22T15:01:46.356Z,101297.98
2018-06-22T15:04:20.789Z,101299.91
2018-06-22T15:06:55.218Z,101300.84
2018-06-22T15:09:24.375Z,101303.30
2018-06-22T15:11:53.398Z,101300.80
2018-06-22T15:14:23.257Z,101301.38
2018-06-22T15:16:53.070Z,101292.23
2018-06-22T15:19:22.124Z,101292.91
2018-06-22T15:21:53.242Z,101293.53
2018-06-22T15:24:22.036Z,101286.84
2018-06-22T15:26:51.042Z,101286.98
2018-06-22T15:29:20.002Z,101276.23
2018-06-22T15:31:49.241Z,101288.02
2018-06-22T15:34:23.071Z,101286.60
2018-06-22T15:36:56.844Z,101294.34
2018-06-22T15:39:30.719Z,101289.99
2018-06-22T15:42:04.562Z,101287.42
2018-06-22T15:44:38.866Z,101292.09
2018-06-22T15:47:12.747Z,101285.21
2018-06-22T15:49:46.622Z,101289.96
2018-06-22T15:52:20.461Z,101288.55
2018-06-22T15:54:55.023Z,101291.34
2018-06-22T15:57:24.113Z,101290.14
2018-06-22T15:59:52.799Z,101286.81
2018-06-22T16:02:27.097Z,101287.34
2018-06-22T16:04:58.429Z,101283.36
2018-06-22T16:07:27.433Z,101292.09
2018-06-22T16:10:01.245Z,101288.34
2018-06-22T16:12:36.551Z,101290.28
2018-06-22T16:15:12.626Z,101292.98
2018-06-22T16:17:46.390Z,101285.78
2018-06-22T16:20:20.671Z,101287.50
2018-06-22T16:22:54.560Z,101290.43
2018-06-22T16:25:28.351Z,101291.94
2018-06-22T16:27:59.727Z,101287.29
2018-06-22T16:30:28.969Z,101292.83
2018-06-22T16:32:59.244Z,101291.61
2018-06-22T16:35:29.629Z,101296.59
2018-06-22T16:37:58.621Z,101297.19
2018-06-22T16:40:27.269Z,101298.41
2018-06-22T16:42:55.949Z,101300.93
2018-06-22T16:45:24.871Z,101304.98
2018-06-22T16:47:53.472Z,101300.20
2018-06-22T16:50:22.271Z,101300.13
2018-06-22T16:52:51.209Z,101302.94
2018-06-22T16:55:19.908Z,101305.08
2018-06-22T16:57:48.595Z,101307.76
2018-06-22T17:00:17.255Z,101300.13
2018-06-22T17:02:46.000Z,101309.80
2018-06-22T17:05:14.846Z,101304.81
2018-06-22T17:07:48.513Z,101310.28
2018-06-22T17:11:22.304Z,101316.90
2018-06-22T17:13:56.025Z,101309.73
2018-06-22T17:16:30.080Z,101308.96
2018-06-22T17:19:00.094Z,101320.16
2018-06-22T17:21:29.758Z,101312.50
2018-06-22T17:23:58.484Z,101315.06
2018-06-22T17:26:27.086Z,101317.97
2018-06-22T17:29:01.666Z,101312.56
2018-06-22T17:31:31.125Z,101313.36
2018-06-22T17:33:59.858Z,101318.45
2018-06-22T17:36:28.836Z,101313.15
2018-06-22T17:38:57.782Z,101314.71
2018-06-22T17:41:26.469Z,101312.11
2018-06-22T17:43:55.106Z,101316.39
2018-06-22T17:46:23.804Z,101313.48
2018-06-22T17:48:52.830Z,101309.09
2018-06-22T17:51:21.498Z,101311.85
2018-06-22T17:53:50.287Z,101316.22
2018-06-22T17:56:32.313Z,101311.75
2018-06-22T17:59:06.225Z,101320.18
2018-06-22T18:01:40.100Z,101311.81
2018-06-22T18:04:14.043Z,101313.83
2018-06-22T18:06:47.862Z,101315.69
2018-06-22T18:09:21.704Z,101311.70
2018-06-22T18:11:55.481Z,101321.99
2018-06-22T18:14:24.278Z,101328.21
2018-06-22T18:16:52.922Z,101334.72
2018-06-22T18:19:21.579Z,101333.27
2018-06-22T18:21:50.539Z,101332.95
2018-06-22T18:24:19.194Z,101335.34
2018-06-22T18:26:47.950Z,101331.48
2018-06-22T18:29:16.619Z,101336.90
2018-06-22T18:31:45.241Z,101337.63
2018-06-22T18:34:13.920Z,101344.70
2018-06-22T18:36:42.589Z,101345.11
2018-06-22T18:39:12.862Z,101349.25
2018-06-22T18:41:41.832Z,101344.61
2018-06-22T18:44:14.592Z,101346.14
2018-06-22T18:46:43.434Z,101350.92
2018-06-22T18:49:12.242Z,101349.27
2018-06-22T18:51:41.196Z,101350.95
2018-06-22T18:54:15.144Z,101356.38
2018-06-22T18:56:49.130Z,101355.34
2018-06-22T18:59:22.852Z,101363.31
2018-06-22T19:01:56.582Z,101366.30
2018-06-22T19:04:25.381Z,101368.08
2018-06-22T19:06:54.118Z,101363.39
2018-06-22T19:09:22.989Z,101373.88
2018-06-22T19:11:51.845Z,101379.50
2018-06-22T19:14:20.513Z,101379.27
2018-06-22T19:16:49.625Z,101385.41
2018-06-22T19:19:18.661Z,101385.41
2018-06-22T19:21:48.693Z,101381.45
2018-06-22T19:24:21.064Z,101389.97
2018-06-22T19:26:51.190Z,101390.69
2018-06-22T19:29:21.367Z,101392.86
2018-06-22T19:31:50.527Z,101397.23
2018-06-22T19:34:23.400Z,101394.53
2018-06-22T19:36:52.218Z,101402.90
2018-06-22T19:39:20.949Z,101404.16
2018-06-22T19:41:49.653Z,101399.68
2018-06-22T19:44:24.449Z,101406.09
2018-06-22T19:46:58.869Z,101403.38
2018-06-22T19:50:34.610Z,101405.73
2018-06-22T19:53:09.199Z,101410.59
2018-06-22T19:55:38.367Z,101409.65
2018-06-22T19:58:07.363Z,101408.41
2018-06-22T20:00:37.315Z,101409.30
2018-06-22T20:03:06.032Z,101411.73
2018-06-22T20:05:35.095Z,101411.47
2018-06-22T20:08:04.030Z,101417.83
2018-06-22T20:10:32.960Z,101416.59
2018-06-22T20:13:01.816Z,101417.30
2018-06-22T20:15:30.921Z,101416.98
2018-06-22T20:17:59.851Z,101418.55
2018-06-22T20:20:28.948Z,101418.91
2018-06-22T20:22:57.752Z,101426.73
2018-06-22T20:25:31.583Z,101432.43
2018-06-22T20:28:00.555Z,101426.63
2018-06-22T20:30:29.871Z,101438.45
2018-06-22T20:32:58.551Z,101432.78
2018-06-22T20:35:32.973Z,101432.11
2018-06-22T20:38:08.828Z,101442.44
2018-06-22T20:40:43.030Z,101435.23
2018-06-22T20:43:16.938Z,101444.84
2018-06-22T20:45:52.277Z,101443.30
2018-06-22T20:48:27.080Z,101445.07
2018-06-22T20:50:55.936Z,101444.48
2018-06-22T20:53:25.196Z,101441.77
2018-06-22T20:55:55.636Z,101442.65
2018-06-22T20:58:24.341Z,101451.34
2018-06-22T21:00:53.097Z,101457.85
2018-06-22T21:03:22.296Z,101459.84
2018-06-22T21:05:51.158Z,101463.50
2018-06-22T21:08:21.334Z,101459.33
2018-06-22T21:10:50.482Z,101460.45
2018-06-22T21:13:19.527Z,101463.94
2018-06-22T21:15:49.039Z,101478.78
2018-06-22T21:18:18.331Z,101466.41
2018-06-22T21:20:52.189Z,101471.92
2018-06-22T21:23:20.932Z,101476.92
2018-06-22T21:25:49.761Z,101473.31
2018-06-22T21:30:26.054Z,101475.75
2018-06-22T21:32:59.949Z,101482.88
2018-06-22T21:35:34.123Z,101474.68
2018-06-22T21:38:08.179Z,101475.19
2018-06-22T21:40:36.855Z,101479.12
2018-06-22T21:43:07.457Z,101483.22
2018-06-22T21:45:36.058Z,101474.55
2018-06-22T21:48:04.788Z,101473.28
2018-06-22T21:50:33.704Z,101473.20
2018-06-22T21:53:03.009Z,101474.20
2018-06-22T21:55:31.893Z,101475.41
2018-06-22T21:58:00.656Z,101477.42
2018-06-22T22:00:31.736Z,101472.21
2018-06-22T22:03:02.157Z,101469.95
2018-06-22T22:05:32.113Z,101470.73
2018-06-22T22:08:00.977Z,101471.48
2018-06-22T22:10:34.760Z,101471.89
2018-06-22T22:13:03.455Z,101479.27
2018-06-22T22:15:32.108Z,101476.06
2018-06-22T22:18:02.335Z,101472.56
2018-06-22T22:20:31.524Z,101473.50
2018-06-22T22:23:00.978Z,101477.41
2018-06-22T22:25:29.867Z,101478.69
2018-06-22T22:27:58.478Z,101485.72
2018-06-22T22:30:27.337Z,101482.91
2018-06-22T22:32:56.238Z,101483.32
2018-06-22T22:35:28.300Z,101475.36
2018-06-22T22:37:56.884Z,101480.22
2018-06-22T22:40:27.119Z,101481.20
2018-06-22T22:42:55.720Z,101489.12
2018-06-22T22:45:24.418Z,101482.14
2018-06-22T22:47:53.061Z,101496.09
2018-06-22T22:50:21.710Z,101486.75
2018-06-22T22:52:50.665Z,101487.89
2018-06-22T22:55:19.508Z,101487.95
2018-06-22T22:57:48.433Z,101488.39
2018-06-22T23:00:17.055Z,101495.15
2018-06-22T23:02:46.689Z,101493.00
2018-06-22T23:05:15.858Z,101492.18
2018-06-22T23:07:44.580Z,101493.64
2018-06-22T23:10:13.383Z,101492.92
2018-06-22T23:12:43.830Z,101496.02
2018-06-22T23:15:13.181Z,101489.98
2018-06-22T23:17:42.190Z,101493.80
2018-06-22T23:20:12.630Z,101486.32
2018-06-22T23:22:52.600Z,101488.83
2018-06-22T23:25:22.254Z,101490.28
2018-06-22T23:27:51.502Z,101489.20
2018-06-22T23:30:21.053Z,101492.02
2018-06-22T23:32:50.511Z,101487.81
2018-06-22T23:35:23.269Z,101489.98
2018-06-22T23:37:53.425Z,101481.48
2018-06-22T23:40:23.393Z,101490.89
2018-06-22T23:42:52.541Z,101484.53
2018-06-22T23:45:21.846Z,101490.52
2018-06-22T23:47:52.099Z,101491.89
2018-06-22T23:50:21.450Z,101482.39
2018-06-22T23:52:50.897Z,101495.54
2018-06-22T23:55:19.648Z,101495.45
2018-06-22T23:57:49.785Z,101490.47
